Terminal Aerodrome Forecast
Issued by NWS Tulsa, OK

Current Version | Previous Version | Text Only | Print | Product List | Glossary On
Versions: 1 2 3 4 5 6 7 8 9 10 11 12 13 14
931
FTUS44 KTSA 251414 AAA
TAFTUL
TAF AMD
KTUL 251414Z 2514/2612 02005KT P6SM VCSH SCT025 BKN050
      TEMPO 2515/2518 6SM -SHRA BKN025
     FM251800 35010G16KT P6SM -TSRA SCT015 BKN022CB BKN040
     FM252200 35010KT P6SM VCSH BKN040 BKN120
     FM260200 36006KT P6SM BKN100
     FM261000 34005KT P6SM FEW250=

USA.gov is the U.S. government's official web portal to all federal, state and local government web resources and services.